ARG1689 SVMC-SKRG
Flight info
| Callsign | ARG1689 |
|---|---|
| Flight time | 1h 5m |
| Altitude | 24000 |
| Route | ASIBA1 BOBAT W1 STB A567 CUC G431 EJA W26 DIPRA DIPRA3B |
| Aircraft | A320/M-SDE3FGHIRWY/LB1 |
Departure
| Time | 2026-04-28 00:06 |
|---|---|
| Airport | La Chinita International Airport (SVMC) |
Arrival
| Time | 2026-04-28 01:12 |
|---|---|
| Airport | Jose Maria Córdova International Airport (SKRG) |
| Time | Latitude | Longitude | Altitude | Speed | Heading |
|---|---|---|---|---|---|
| 2026-04-27 23:49 | 10.55645 | -71.72440 | 226 ft | 0 kts | 62° |
| 2026-04-27 23:59 | 10.55642 | -71.72445 | 221 ft | 3 kts | 70° |
| 2026-04-27 23:59 | 10.55640 | -71.72463 | 227 ft | 3 kts | 108° |
| 2026-04-28 00:00 | 10.55649 | -71.72479 | 231 ft | 3 kts | 146° |
| 2026-04-28 00:00 | 10.55664 | -71.72489 | 230 ft | 3 kts | 146° |
| 2026-04-28 00:00 | 10.55680 | -71.72496 | 229 ft | 3 kts | 183° |
| 2026-04-28 00:00 | 10.55687 | -71.72495 | 229 ft | 1 kts | 199° |
| 2026-04-28 00:01 | 10.55648 | -71.72547 | 228 ft | 21 kts | 238° |
| 2026-04-28 00:01 | 10.55672 | -71.72627 | 227 ft | 0 kts | 303° |
| 2026-04-28 00:02 | 10.55676 | -71.72635 | 227 ft | 10 kts | 300° |
| 2026-04-28 00:02 | 10.55687 | -71.72656 | 227 ft | 0 kts | 290° |
| 2026-04-28 00:03 | 10.55701 | -71.72689 | 226 ft | 19 kts | 297° |
| 2026-04-28 00:03 | 10.55744 | -71.72801 | 229 ft | 16 kts | 291° |
| 2026-04-28 00:03 | 10.55724 | -71.72908 | 239 ft | 18 kts | 233° |
| 2026-04-28 00:03 | 10.55548 | -71.73006 | 237 ft | 37 kts | 201° |
| 2026-04-28 00:04 | 10.55277 | -71.73120 | 232 ft | 47 kts | 204° |
| 2026-04-28 00:04 | 10.54757 | -71.73329 | 223 ft | 25 kts | 200° |
| 2026-04-28 00:04 | 10.54654 | -71.73381 | 224 ft | 5 kts | 311° |
| 2026-04-28 00:05 | 10.54681 | -71.73373 | 224 ft | 0 kts | 20° |
| 2026-04-28 00:05 | 10.54888 | -71.73283 | 225 ft | 74 kts | 22° |
| 2026-04-28 00:05 | 10.55303 | -71.73113 | 235 ft | 119 kts | 22° |
| 2026-04-28 00:06 | 10.56608 | -71.72549 | 435 ft | 173 kts | 24° |
| 2026-04-28 00:06 | 10.57794 | -71.72004 | 774 ft | 201 kts | 24° |
| 2026-04-28 00:06 | 10.59142 | -71.71374 | 1265 ft | 225 kts | 24° |
| 2026-04-28 00:06 | 10.60629 | -71.70697 | 1812 ft | 243 kts | 27° |
| 2026-04-28 00:07 | 10.61958 | -71.69666 | 2733 ft | 243 kts | 51° |
| 2026-04-28 00:07 | 10.62659 | -71.68096 | 3561 ft | 250 kts | 79° |
| 2026-04-28 00:07 | 10.62516 | -71.66327 | 4310 ft | 261 kts | 112° |
| 2026-04-28 00:07 | 10.61338 | -71.64920 | 5172 ft | 268 kts | 147° |
| 2026-04-28 00:08 | 10.59539 | -71.64427 | 6044 ft | 276 kts | 181° |
| 2026-04-28 00:08 | 10.57691 | -71.65050 | 6872 ft | 285 kts | 214° |
| 2026-04-28 00:08 | 10.56233 | -71.66460 | 7640 ft | 292 kts | 225° |
| 2026-04-28 00:08 | 10.55016 | -71.68125 | 8437 ft | 297 kts | 240° |
| 2026-04-28 00:09 | 10.53858 | -71.69861 | 9242 ft | 297 kts | 220° |
| 2026-04-28 00:09 | 10.52074 | -71.70843 | 10026 ft | 294 kts | 189° |
| 2026-04-28 00:09 | 10.50029 | -71.70771 | 10536 ft | 302 kts | 159° |
| 2026-04-28 00:09 | 10.48134 | -71.69774 | 10945 ft | 315 kts | 147° |
| 2026-04-28 00:10 | 10.46206 | -71.68582 | 11303 ft | 332 kts | 147° |
| 2026-04-28 00:10 | 10.44182 | -71.67329 | 11624 ft | 349 kts | 147° |
| 2026-04-28 00:10 | 10.42076 | -71.66026 | 12079 ft | 359 kts | 149° |
| 2026-04-28 00:10 | 10.39793 | -71.64958 | 12719 ft | 364 kts | 158° |
| 2026-04-28 00:11 | 10.37371 | -71.64133 | 13371 ft | 368 kts | 162° |
| 2026-04-28 00:11 | 10.35735 | -71.63666 | 13781 ft | 371 kts | 164° |
| 2026-04-28 00:11 | 10.32370 | -71.62797 | 14529 ft | 375 kts | 165° |
| 2026-04-28 00:11 | 10.29826 | -71.62149 | 15102 ft | 378 kts | 165° |
| 2026-04-28 00:12 | 10.27267 | -71.61472 | 15670 ft | 381 kts | 164° |
| 2026-04-28 00:12 | 10.24706 | -71.60765 | 16227 ft | 383 kts | 164° |
| 2026-04-28 00:12 | 10.22133 | -71.60029 | 16790 ft | 386 kts | 163° |
| 2026-04-28 00:12 | 10.19503 | -71.59387 | 17340 ft | 389 kts | 172° |
| 2026-04-28 00:13 | 10.16825 | -71.59331 | 17901 ft | 392 kts | 186° |
| 2026-04-28 00:13 | 10.14161 | -71.59946 | 18406 ft | 396 kts | 200° |
| 2026-04-28 00:13 | 10.11695 | -71.61227 | 18869 ft | 400 kts | 213° |
| 2026-04-28 00:13 | 10.09567 | -71.63072 | 19345 ft | 404 kts | 224° |
| 2026-04-28 00:14 | 10.07553 | -71.65084 | 19815 ft | 407 kts | 223° |
| 2026-04-28 00:14 | 10.05528 | -71.67096 | 20300 ft | 409 kts | 223° |
| 2026-04-28 00:14 | 10.03484 | -71.69121 | 20762 ft | 412 kts | 223° |
| 2026-04-28 00:14 | 10.01428 | -71.71159 | 21217 ft | 414 kts | 223° |
| 2026-04-28 00:15 | 9.99358 | -71.73208 | 21666 ft | 417 kts | 223° |
| 2026-04-28 00:15 | 9.97278 | -71.75266 | 22108 ft | 419 kts | 223° |
| 2026-04-28 00:15 | 9.95173 | -71.77325 | 22530 ft | 421 kts | 220° |
| 2026-04-28 00:15 | 9.92830 | -71.79101 | 22952 ft | 422 kts | 210° |
| 2026-04-28 00:16 | 9.90197 | -71.80413 | 23363 ft | 423 kts | 200° |
| 2026-04-28 00:16 | 9.87356 | -71.81200 | 23712 ft | 424 kts | 189° |
| 2026-04-28 00:16 | 9.84434 | -71.81619 | 23870 ft | 425 kts | 187° |
| 2026-04-28 00:16 | 9.82442 | -71.81899 | 23908 ft | 431 kts | 187° |
| 2026-04-28 00:17 | 9.79475 | -71.82321 | 23922 ft | 438 kts | 188° |
| 2026-04-28 00:17 | 9.76412 | -71.82763 | 23921 ft | 439 kts | 188° |
| 2026-04-28 00:17 | 9.73383 | -71.83204 | 23921 ft | 439 kts | 188° |
| 2026-04-28 00:17 | 9.70358 | -71.83644 | 23921 ft | 440 kts | 188° |
| 2026-04-28 00:18 | 9.67368 | -71.84076 | 23916 ft | 439 kts | 188° |
| 2026-04-28 00:18 | 9.64339 | -71.84512 | 23919 ft | 440 kts | 188° |
| 2026-04-28 00:18 | 9.61313 | -71.84946 | 23919 ft | 440 kts | 188° |
| 2026-04-28 00:18 | 9.58269 | -71.85383 | 23922 ft | 439 kts | 188° |
| 2026-04-28 00:19 | 9.55250 | -71.85818 | 23921 ft | 440 kts | 188° |
| 2026-04-28 00:19 | 9.52220 | -71.86256 | 23916 ft | 439 kts | 188° |
| 2026-04-28 00:19 | 9.49157 | -71.86698 | 23912 ft | 440 kts | 188° |
| 2026-04-28 00:19 | 9.46125 | -71.87135 | 23917 ft | 440 kts | 188° |
| 2026-04-28 00:20 | 9.43091 | -71.87570 | 23916 ft | 439 kts | 188° |
| 2026-04-28 00:20 | 9.40044 | -71.88007 | 23916 ft | 440 kts | 188° |
| 2026-04-28 00:20 | 9.37069 | -71.88435 | 23915 ft | 439 kts | 188° |
| 2026-04-28 00:20 | 9.34044 | -71.88870 | 23918 ft | 440 kts | 188° |
| 2026-04-28 00:21 | 9.31013 | -71.89304 | 23916 ft | 440 kts | 188° |
| 2026-04-28 00:21 | 9.27983 | -71.89737 | 23917 ft | 440 kts | 188° |
| 2026-04-28 00:21 | 9.24913 | -71.90177 | 23918 ft | 440 kts | 188° |
| 2026-04-28 00:21 | 9.21828 | -71.90621 | 23916 ft | 440 kts | 188° |
| 2026-04-28 00:22 | 9.18859 | -71.91047 | 23920 ft | 439 kts | 188° |
| 2026-04-28 00:22 | 9.15827 | -71.91481 | 23916 ft | 440 kts | 188° |
| 2026-04-28 00:22 | 9.12802 | -71.91914 | 23917 ft | 440 kts | 188° |
| 2026-04-28 00:22 | 9.09771 | -71.92349 | 23921 ft | 440 kts | 188° |
| 2026-04-28 00:23 | 9.06696 | -71.92791 | 23914 ft | 440 kts | 188° |
| 2026-04-28 00:23 | 9.03663 | -71.93227 | 23919 ft | 440 kts | 188° |
| 2026-04-28 00:23 | 9.00638 | -71.93678 | 23918 ft | 440 kts | 190° |
| 2026-04-28 00:23 | 8.97682 | -71.94488 | 23916 ft | 440 kts | 200° |
| 2026-04-28 00:24 | 8.94900 | -71.95791 | 23915 ft | 441 kts | 208° |
| 2026-04-28 00:24 | 8.92220 | -71.97301 | 23912 ft | 442 kts | 208° |
| 2026-04-28 00:24 | 8.89527 | -71.98814 | 23917 ft | 442 kts | 208° |
| 2026-04-28 00:24 | 8.86836 | -72.00326 | 23917 ft | 442 kts | 208° |
| 2026-04-28 00:25 | 8.84149 | -72.01836 | 23921 ft | 442 kts | 208° |
| 2026-04-28 00:25 | 8.81457 | -72.03348 | 23921 ft | 442 kts | 208° |
| 2026-04-28 00:25 | 8.78762 | -72.04860 | 23919 ft | 442 kts | 208° |
| 2026-04-28 00:25 | 8.76072 | -72.06367 | 23924 ft | 442 kts | 208° |
| 2026-04-28 00:26 | 8.73382 | -72.07873 | 23922 ft | 442 kts | 208° |
| 2026-04-28 00:26 | 8.70691 | -72.09378 | 23924 ft | 442 kts | 208° |
| 2026-04-28 00:26 | 8.67992 | -72.10889 | 23927 ft | 442 kts | 208° |
| 2026-04-28 00:26 | 8.65301 | -72.12396 | 23923 ft | 442 kts | 208° |
| 2026-04-28 00:27 | 8.62605 | -72.13903 | 23932 ft | 442 kts | 208° |
| 2026-04-28 00:27 | 8.59910 | -72.15410 | 23931 ft | 443 kts | 208° |
| 2026-04-28 00:27 | 8.57179 | -72.16939 | 23937 ft | 443 kts | 208° |
| 2026-04-28 00:27 | 8.54484 | -72.18449 | 23942 ft | 443 kts | 208° |
| 2026-04-28 00:28 | 8.51792 | -72.19956 | 23948 ft | 443 kts | 208° |
| 2026-04-28 00:28 | 8.49095 | -72.21465 | 23950 ft | 443 kts | 208° |
| 2026-04-28 00:28 | 8.46399 | -72.22972 | 23947 ft | 443 kts | 208° |
| 2026-04-28 00:28 | 8.43733 | -72.24462 | 23947 ft | 443 kts | 208° |
| 2026-04-28 00:29 | 8.40995 | -72.25989 | 23947 ft | 443 kts | 208° |
| 2026-04-28 00:29 | 8.38330 | -72.27474 | 23953 ft | 443 kts | 208° |
| 2026-04-28 00:29 | 8.35600 | -72.28994 | 23949 ft | 443 kts | 208° |
| 2026-04-28 00:29 | 8.32931 | -72.30482 | 23954 ft | 443 kts | 208° |
| 2026-04-28 00:30 | 8.30200 | -72.32011 | 23959 ft | 443 kts | 208° |
| 2026-04-28 00:30 | 8.27509 | -72.33519 | 23960 ft | 443 kts | 208° |
| 2026-04-28 00:30 | 8.24842 | -72.35014 | 23955 ft | 443 kts | 208° |
| 2026-04-28 00:30 | 8.22144 | -72.36521 | 23956 ft | 443 kts | 208° |
| 2026-04-28 00:31 | 8.19411 | -72.38033 | 23962 ft | 443 kts | 207° |
| 2026-04-28 00:31 | 8.16681 | -72.39478 | 23971 ft | 443 kts | 206° |
| 2026-04-28 00:31 | 8.13932 | -72.40884 | 23972 ft | 443 kts | 206° |
| 2026-04-28 00:31 | 8.11138 | -72.42287 | 23982 ft | 443 kts | 205° |
| 2026-04-28 00:32 | 8.08372 | -72.43671 | 23976 ft | 443 kts | 205° |
| 2026-04-28 00:32 | 8.05615 | -72.45062 | 23976 ft | 443 kts | 206° |
| 2026-04-28 00:32 | 8.02858 | -72.46464 | 23980 ft | 443 kts | 206° |
| 2026-04-28 00:32 | 8.00106 | -72.47875 | 23977 ft | 443 kts | 206° |
| 2026-04-28 00:33 | 7.97359 | -72.49291 | 23977 ft | 443 kts | 206° |
| 2026-04-28 00:33 | 7.94736 | -72.50919 | 23979 ft | 444 kts | 216° |
| 2026-04-28 00:33 | 7.92422 | -72.52985 | 23975 ft | 446 kts | 226° |
| 2026-04-28 00:33 | 7.90484 | -72.55438 | 23974 ft | 447 kts | 234° |
| 2026-04-28 00:34 | 7.88732 | -72.57978 | 23976 ft | 447 kts | 234° |
| 2026-04-28 00:34 | 7.86949 | -72.60548 | 23971 ft | 447 kts | 234° |
| 2026-04-28 00:34 | 7.85157 | -72.63118 | 23987 ft | 447 kts | 233° |
| 2026-04-28 00:34 | 7.83367 | -72.65676 | 23998 ft | 447 kts | 233° |
| 2026-04-28 00:35 | 7.81569 | -72.68241 | 23999 ft | 447 kts | 233° |
| 2026-04-28 00:35 | 7.79784 | -72.70794 | 24010 ft | 447 kts | 233° |
| 2026-04-28 00:35 | 7.77985 | -72.73378 | 24017 ft | 447 kts | 234° |
| 2026-04-28 00:35 | 7.76197 | -72.75945 | 24026 ft | 447 kts | 234° |
| 2026-04-28 00:36 | 7.74408 | -72.78517 | 24032 ft | 447 kts | 234° |
| 2026-04-28 00:36 | 7.72621 | -72.81085 | 24046 ft | 447 kts | 234° |
| 2026-04-28 00:36 | 7.70831 | -72.83652 | 24053 ft | 447 kts | 234° |
| 2026-04-28 00:36 | 7.69037 | -72.86217 | 24053 ft | 447 kts | 234° |
| 2026-04-28 00:37 | 7.67244 | -72.88787 | 24050 ft | 447 kts | 234° |
| 2026-04-28 00:37 | 7.65480 | -72.91313 | 24045 ft | 447 kts | 233° |
| 2026-04-28 00:37 | 7.63667 | -72.93904 | 24040 ft | 447 kts | 234° |
| 2026-04-28 00:37 | 7.61892 | -72.96439 | 24046 ft | 447 kts | 234° |
| 2026-04-28 00:38 | 7.60098 | -72.98996 | 24040 ft | 447 kts | 234° |
| 2026-04-28 00:38 | 7.58302 | -73.01558 | 24033 ft | 447 kts | 234° |
| 2026-04-28 00:38 | 7.56484 | -73.04154 | 24024 ft | 447 kts | 234° |
| 2026-04-28 00:38 | 7.54715 | -73.06677 | 24021 ft | 447 kts | 234° |
| 2026-04-28 00:39 | 7.52922 | -73.09236 | 24012 ft | 447 kts | 234° |
| 2026-04-28 00:39 | 7.51129 | -73.11800 | 23998 ft | 447 kts | 234° |
| 2026-04-28 00:39 | 7.49313 | -73.14399 | 23994 ft | 447 kts | 234° |
| 2026-04-28 00:39 | 7.47521 | -73.16964 | 23991 ft | 447 kts | 234° |
| 2026-04-28 00:40 | 7.45732 | -73.19519 | 23981 ft | 447 kts | 234° |
| 2026-04-28 00:40 | 7.43936 | -73.22074 | 23981 ft | 447 kts | 234° |
| 2026-04-28 00:40 | 7.42140 | -73.24629 | 23970 ft | 447 kts | 234° |
| 2026-04-28 00:40 | 7.40671 | -73.26721 | 23977 ft | 447 kts | 234° |
| 2026-04-28 00:42 | 7.38876 | -73.29280 | 23964 ft | 447 kts | 234° |
| 2026-04-28 00:42 | 7.37084 | -73.31835 | 23968 ft | 447 kts | 234° |
| 2026-04-28 00:42 | 7.35293 | -73.34392 | 23967 ft | 447 kts | 234° |
| 2026-04-28 00:43 | 7.33500 | -73.36954 | 23961 ft | 447 kts | 234° |
| 2026-04-28 00:43 | 7.31711 | -73.39506 | 23950 ft | 447 kts | 234° |
| 2026-04-28 00:43 | 7.29904 | -73.42083 | 23936 ft | 447 kts | 234° |
| 2026-04-28 00:43 | 7.28111 | -73.44633 | 23929 ft | 447 kts | 233° |
| 2026-04-28 00:44 | 7.26334 | -73.47161 | 23916 ft | 447 kts | 234° |
| 2026-04-28 00:44 | 7.24515 | -73.49750 | 23900 ft | 447 kts | 234° |
| 2026-04-28 00:44 | 7.22719 | -73.52307 | 23890 ft | 447 kts | 234° |
| 2026-04-28 00:44 | 7.20947 | -73.54825 | 23876 ft | 447 kts | 234° |
| 2026-04-28 00:45 | 7.19150 | -73.57376 | 23875 ft | 447 kts | 234° |
| 2026-04-28 00:45 | 7.17354 | -73.59929 | 23873 ft | 447 kts | 234° |
| 2026-04-28 00:45 | 7.15559 | -73.62484 | 23871 ft | 447 kts | 234° |
| 2026-04-28 00:45 | 7.13765 | -73.65044 | 23872 ft | 447 kts | 234° |
| 2026-04-28 00:46 | 7.11967 | -73.67605 | 23867 ft | 447 kts | 234° |
| 2026-04-28 00:46 | 7.10175 | -73.70155 | 23872 ft | 447 kts | 234° |
| 2026-04-28 00:46 | 7.08978 | -73.71856 | 23869 ft | 447 kts | 234° |
| 2026-04-28 00:46 | 7.06584 | -73.75255 | 23869 ft | 447 kts | 234° |
| 2026-04-28 00:47 | 7.05373 | -73.76971 | 23867 ft | 447 kts | 234° |
| 2026-04-28 00:47 | 7.03573 | -73.79525 | 23871 ft | 447 kts | 234° |
| 2026-04-28 00:47 | 7.01936 | -73.82181 | 23869 ft | 448 kts | 240° |
| 2026-04-28 00:47 | 7.00416 | -73.84925 | 23864 ft | 448 kts | 240° |
| 2026-04-28 00:48 | 6.98897 | -73.87659 | 23867 ft | 448 kts | 240° |
| 2026-04-28 00:48 | 6.97348 | -73.90432 | 23871 ft | 448 kts | 240° |
| 2026-04-28 00:48 | 6.95814 | -73.93169 | 23866 ft | 448 kts | 239° |
| 2026-04-28 00:48 | 6.94263 | -73.95935 | 23870 ft | 448 kts | 239° |
| 2026-04-28 00:49 | 6.92750 | -73.98633 | 23874 ft | 448 kts | 240° |
| 2026-04-28 00:49 | 6.91200 | -74.01403 | 23872 ft | 448 kts | 240° |
| 2026-04-28 00:49 | 6.89670 | -74.04140 | 23874 ft | 448 kts | 240° |
| 2026-04-28 00:49 | 6.88142 | -74.06874 | 23879 ft | 448 kts | 240° |
| 2026-04-28 00:50 | 6.86612 | -74.09609 | 23880 ft | 448 kts | 240° |
| 2026-04-28 00:50 | 6.85062 | -74.12372 | 23887 ft | 448 kts | 239° |
| 2026-04-28 00:50 | 6.83547 | -74.15068 | 23895 ft | 448 kts | 239° |
| 2026-04-28 00:50 | 6.81994 | -74.17830 | 23899 ft | 448 kts | 240° |
| 2026-04-28 00:51 | 6.80468 | -74.20555 | 23903 ft | 447 kts | 240° |
| 2026-04-28 00:51 | 6.78961 | -74.23252 | 23903 ft | 448 kts | 240° |
| 2026-04-28 00:51 | 6.77437 | -74.25983 | 23913 ft | 448 kts | 240° |
| 2026-04-28 00:51 | 6.75897 | -74.28735 | 23916 ft | 447 kts | 240° |
| 2026-04-28 00:52 | 6.74358 | -74.31482 | 23913 ft | 448 kts | 240° |
| 2026-04-28 00:52 | 6.72823 | -74.34213 | 23914 ft | 448 kts | 240° |
| 2026-04-28 00:52 | 6.71293 | -74.36933 | 23926 ft | 447 kts | 240° |
| 2026-04-28 00:52 | 6.69769 | -74.39659 | 23931 ft | 448 kts | 240° |
| 2026-04-28 00:53 | 6.68240 | -74.42394 | 23934 ft | 447 kts | 240° |
| 2026-04-28 00:53 | 6.66714 | -74.45120 | 23935 ft | 447 kts | 240° |
| 2026-04-28 00:53 | 6.65179 | -74.47852 | 23943 ft | 448 kts | 240° |
| 2026-04-28 00:53 | 6.63645 | -74.50578 | 23956 ft | 447 kts | 240° |
| 2026-04-28 00:54 | 6.62114 | -74.53305 | 23965 ft | 447 kts | 240° |
| 2026-04-28 00:54 | 6.60823 | -74.56183 | 23957 ft | 448 kts | 250° |
| 2026-04-28 00:54 | 6.59813 | -74.59115 | 23968 ft | 448 kts | 250° |
| 2026-04-28 00:54 | 6.58784 | -74.62083 | 23979 ft | 448 kts | 250° |
| 2026-04-28 00:55 | 6.57751 | -74.65037 | 23985 ft | 448 kts | 250° |
| 2026-04-28 00:55 | 6.56712 | -74.67990 | 23993 ft | 448 kts | 250° |
| 2026-04-28 00:55 | 6.55672 | -74.70943 | 24004 ft | 448 kts | 250° |
| 2026-04-28 00:55 | 6.54630 | -74.73901 | 24005 ft | 448 kts | 250° |
| 2026-04-28 00:56 | 6.53589 | -74.76851 | 24015 ft | 448 kts | 250° |
| 2026-04-28 00:56 | 6.52550 | -74.79801 | 23921 ft | 444 kts | 250° |
| 2026-04-28 00:56 | 6.51525 | -74.82720 | 23712 ft | 442 kts | 250° |
| 2026-04-28 00:56 | 6.50507 | -74.85634 | 23488 ft | 441 kts | 250° |
| 2026-04-28 00:57 | 6.49494 | -74.88541 | 23236 ft | 439 kts | 250° |
| 2026-04-28 00:57 | 6.48472 | -74.91473 | 22981 ft | 438 kts | 250° |
| 2026-04-28 00:57 | 6.47475 | -74.94321 | 22742 ft | 436 kts | 250° |
| 2026-04-28 00:57 | 6.46464 | -74.97185 | 22499 ft | 434 kts | 250° |
| 2026-04-28 00:58 | 6.45447 | -75.00052 | 22253 ft | 433 kts | 250° |
| 2026-04-28 00:58 | 6.44442 | -75.02894 | 22015 ft | 431 kts | 250° |
| 2026-04-28 00:58 | 6.43442 | -75.05733 | 21777 ft | 430 kts | 250° |
| 2026-04-28 00:58 | 6.42450 | -75.08563 | 21542 ft | 428 kts | 250° |
| 2026-04-28 00:59 | 6.41287 | -75.11307 | 21309 ft | 426 kts | 240° |
| 2026-04-28 00:59 | 6.39613 | -75.13749 | 21071 ft | 424 kts | 229° |
| 2026-04-28 00:59 | 6.37483 | -75.15794 | 20856 ft | 422 kts | 217° |
| 2026-04-28 00:59 | 6.35014 | -75.17350 | 20648 ft | 420 kts | 205° |
| 2026-04-28 01:00 | 6.32289 | -75.18387 | 20435 ft | 418 kts | 195° |
| 2026-04-28 01:00 | 6.29478 | -75.19150 | 20215 ft | 416 kts | 195° |
| 2026-04-28 01:00 | 6.26689 | -75.19909 | 20002 ft | 415 kts | 195° |
| 2026-04-28 01:00 | 6.23902 | -75.20667 | 19778 ft | 413 kts | 195° |
| 2026-04-28 01:01 | 6.21146 | -75.21417 | 19335 ft | 407 kts | 195° |
| 2026-04-28 01:01 | 6.18428 | -75.22157 | 18804 ft | 404 kts | 195° |
| 2026-04-28 01:01 | 6.15709 | -75.22898 | 18226 ft | 402 kts | 195° |
| 2026-04-28 01:01 | 6.13028 | -75.23630 | 17656 ft | 398 kts | 195° |
| 2026-04-28 01:02 | 6.10332 | -75.24367 | 16802 ft | 403 kts | 195° |
| 2026-04-28 01:02 | 6.07635 | -75.25104 | 16232 ft | 399 kts | 195° |
| 2026-04-28 01:02 | 6.04970 | -75.25831 | 15666 ft | 396 kts | 195° |
| 2026-04-28 01:02 | 6.02317 | -75.26551 | 15069 ft | 394 kts | 195° |
| 2026-04-28 01:03 | 5.99682 | -75.27265 | 14611 ft | 388 kts | 195° |
| 2026-04-28 01:03 | 5.97133 | -75.27956 | 14469 ft | 372 kts | 195° |
| 2026-04-28 01:03 | 5.94687 | -75.28619 | 14347 ft | 357 kts | 195° |
| 2026-04-28 01:03 | 5.92330 | -75.29260 | 14218 ft | 344 kts | 195° |
| 2026-04-28 01:04 | 5.90064 | -75.29877 | 14092 ft | 331 kts | 195° |
| 2026-04-28 01:04 | 5.87878 | -75.30474 | 13977 ft | 320 kts | 195° |
| 2026-04-28 01:04 | 5.85705 | -75.31068 | 13809 ft | 336 kts | 195° |
| 2026-04-28 01:04 | 5.83562 | -75.31953 | 13638 ft | 329 kts | 215° |
| 2026-04-28 01:05 | 5.82043 | -75.33603 | 13476 ft | 318 kts | 241° |
| 2026-04-28 01:05 | 5.81368 | -75.35660 | 13333 ft | 307 kts | 264° |
| 2026-04-28 01:05 | 5.81501 | -75.37755 | 13196 ft | 297 kts | 285° |
| 2026-04-28 01:05 | 5.82336 | -75.39613 | 13059 ft | 287 kts | 306° |
| 2026-04-28 01:06 | 5.83693 | -75.41016 | 12943 ft | 275 kts | 325° |
| 2026-04-28 01:06 | 5.85355 | -75.41859 | 12802 ft | 263 kts | 344° |
| 2026-04-28 01:06 | 5.87144 | -75.42129 | 12423 ft | 262 kts | 0° |
| 2026-04-28 01:06 | 5.88989 | -75.42136 | 11906 ft | 269 kts | 0° |
| 2026-04-28 01:07 | 5.90872 | -75.42143 | 11477 ft | 271 kts | 0° |
| 2026-04-28 01:07 | 5.92756 | -75.42156 | 11134 ft | 269 kts | 0° |
| 2026-04-28 01:07 | 5.94618 | -75.42169 | 10814 ft | 267 kts | 0° |
| 2026-04-28 01:07 | 5.95843 | -75.42177 | 10603 ft | 261 kts | 0° |
| 2026-04-28 01:08 | 5.98203 | -75.42193 | 10220 ft | 246 kts | 0° |
| 2026-04-28 01:08 | 5.99867 | -75.42204 | 9925 ft | 229 kts | 0° |
| 2026-04-28 01:08 | 6.01386 | -75.42214 | 9648 ft | 210 kts | 0° |
| 2026-04-28 01:08 | 6.02824 | -75.42223 | 9381 ft | 205 kts | 0° |
| 2026-04-28 01:09 | 6.04208 | -75.42233 | 9141 ft | 188 kts | 0° |
| 2026-04-28 01:09 | 6.05446 | -75.42241 | 8911 ft | 169 kts | 0° |
| 2026-04-28 01:09 | 6.06587 | -75.42248 | 8713 ft | 162 kts | 0° |
| 2026-04-28 01:09 | 6.07712 | -75.42255 | 8506 ft | 162 kts | 0° |
| 2026-04-28 01:10 | 6.08839 | -75.42263 | 8296 ft | 161 kts | 0° |
| 2026-04-28 01:10 | 6.09959 | -75.42270 | 8092 ft | 161 kts | 0° |
| 2026-04-28 01:10 | 6.11077 | -75.42277 | 7865 ft | 160 kts | 0° |
| 2026-04-28 01:10 | 6.12189 | -75.42283 | 7622 ft | 160 kts | 360° |
| 2026-04-28 01:11 | 6.13298 | -75.42292 | 7330 ft | 158 kts | 360° |
| 2026-04-28 01:11 | 6.14397 | -75.42297 | 7106 ft | 158 kts | 359° |
| 2026-04-28 01:11 | 6.15494 | -75.42316 | 6992 ft | 153 kts | 0° |
| 2026-04-28 01:11 | 6.16389 | -75.42313 | 7002 ft | 95 kts | 0° |
| 2026-04-28 01:12 | 6.16793 | -75.42319 | 7014 ft | 35 kts | 359° |
| 2026-04-28 01:12 | 6.16939 | -75.42333 | 7017 ft | 11 kts | 345° |
| 2026-04-28 01:12 | 6.16962 | -75.42341 | 7017 ft | 2 kts | 341° |
| 2026-04-28 01:12 | 6.17040 | -75.42373 | 7020 ft | 23 kts | 333° |
| 2026-04-28 01:13 | 6.17163 | -75.42448 | 7021 ft | 0 kts | 334° |
| 2026-04-28 01:13 | 6.17158 | -75.42479 | 7019 ft | 3 kts | 223° |
| 2026-04-28 01:13 | 6.17123 | -75.42486 | 7019 ft | 13 kts | 185° |
| 2026-04-28 01:14 | 6.16979 | -75.42484 | 7016 ft | 19 kts | 180° |
| 2026-04-28 01:14 | 6.16970 | -75.42552 | 7019 ft | 21 kts | 333° |
| 2026-04-28 01:14 | 6.17056 | -75.42600 | 7017 ft | 15 kts | 335° |
| 2026-04-28 01:14 | 6.17093 | -75.42667 | 7018 ft | 13 kts | 281° |
| 2026-04-28 01:15 | 6.17098 | -75.42689 | 7018 ft | 0 kts | 281° |